This is the latest recevied weather packets stored in our database for station/object KB4KY. If no packets are shown the sender has not sent any weather packets the latest 10 day(s).
| Time | Temp. | Humidity | Pressure | Rain* | Wind** | Luminosity | Snow |
|---|---|---|---|---|---|---|---|
| 1777869018 | 12.22° C | 68% | 1013.4 hPa | 0 mm | - | - | - |
| 1777868419 | 11.67° C | 68% | 1013.3 hPa | 0 mm | - | - | - |
| 1777868081 | 11.67° C | 67% | 1013.3 hPa | 0 mm | - | - | - |
| 1777867820 | 11.67° C | 67% | 1013.3 hPa | 0 mm | - | - | - |
| 1777867521 | 11.67° C | 67% | 1013.3 hPa | 0 mm | - | - | - |
| 1777867221 | 11.67° C | 67% | 1013.5 hPa | 0 mm | - | - | - |
| 1777866926 | 11.67° C | 68% | 1013.6 hPa | 0 mm | - | - | - |
| 1777866617 | 11.67° C | 67% | 1013.7 hPa | 0 mm | - | - | - |
| 1777866317 | 11.67° C | 68% | 1013.7 hPa | 0 mm | - | - | - |
| 1777866020 | 11.11° C | 69% | 1013.8 hPa | 0 mm | - | - | - |
| 1777865815 | 11.11° C | 70% | 1013.8 hPa | 0 mm | - | - | - |
| 1777865719 | 11.11° C | 70% | 1013.8 hPa | 0 mm | - | - | - |
| 1777865419 | 11.11° C | 71% | 1013.8 hPa | 0 mm | - | - | - |
| 1777865115 | 11.11° C | 72% | 1013.8 hPa | 0 mm | - | - | - |
| 1777864955 | 10.56° C | 73% | 1013.7 hPa | 0 mm | - | - | - |
| 1777864813 | 10.56° C | 73% | 1013.7 hPa | 0 mm | - | - | - |
| 1777864524 | 11.11° C | 73% | 1013.8 hPa | 0 mm | - | - | - |
| 1777864515 | 10.56° C | 73% | 1013.7 hPa | 0 mm | - | - | - |
| 1777864213 | 10.56° C | 73% | 1013.8 hPa | 0 mm | - | - | - |
| 1777863914 | 11.11° C | 73% | 1013.8 hPa | 0 mm | - | - | - |
| 1777863833 | 11.67° C | 68% | 1014.2 hPa | 0 mm | - | - | - |
| 1777863612 | 11.11° C | 72% | 1013.9 hPa | 0 mm | - | - | - |
| 1777863314 | 11.11° C | 72% | 1014 hPa | 0 mm | - | - | - |
| 1777863014 | 11.11° C | 71% | 1014.1 hPa | 0 mm | - | - | - |
| 1777862711 | 11.67° C | 69% | 1014.1 hPa | 0 mm | - | - | - |
* Rain latest hour (hover to see other rain measurements)
** Current wind speed in m/s (hover to see current wind gust speed)